sensor_id;sensor_type;location;lat;lon;timestamp;temperature;humidity
5055;DHT22;13829;48.990;8.346;2023-04-01T00:02:15;10.70;99.90
5055;DHT22;13829;48.990;8.346;2023-04-01T00:04:47;10.80;99.90
5055;DHT22;13829;48.990;8.346;2023-04-01T00:07:24;10.80;99.90
5055;DHT22;13829;48.990;8.346;2023-04-01T00:10:02;10.80;99.90
5055;DHT22;13829;48.990;8.346;2023-04-01T00:12:49;10.80;99.90
5055;DHT22;13829;48.990;8.346;2023-04-01T00:15:23;10.80;99.90
5055;DHT22;13829;48.990;8.346;2023-04-01T00:18:12;10.80;99.90
5055;DHT22;13829;48.990;8.346;2023-04-01T00:20:46;10.80;99.90
5055;DHT22;13829;48.990;8.346;2023-04-01T00:23:21;10.70;99.90
5055;DHT22;13829;48.990;8.346;2023-04-01T00:26:02;10.70;99.90
5055;DHT22;13829;48.990;8.346;2023-04-01T00:28:39;10.70;99.90
5055;DHT22;13829;48.990;8.346;2023-04-01T00:31:19;10.80;99.90
5055;DHT22;13829;48.990;8.346;2023-04-01T00:33:57;10.80;99.90
5055;DHT22;13829;48.990;8.346;2023-04-01T00:36:41;10.80;99.90
5055;DHT22;13829;48.990;8.346;2023-04-01T00:39:12;10.80;99.90
5055;DHT22;13829;48.990;8.346;2023-04-01T00:42:03;10.90;99.90
5055;DHT22;13829;48.990;8.346;2023-04-01T00:44:47;10.90;99.90
5055;DHT22;13829;48.990;8.346;2023-04-01T00:47:33;10.90;99.90
5055;DHT22;13829;48.990;8.346;2023-04-01T00:50:08;10.90;99.90
5055;DHT22;13829;48.990;8.346;2023-04-01T00:52:48;10.90;99.90
5055;DHT22;13829;48.990;8.346;2023-04-01T00:55:20;10.90;99.90
5055;DHT22;13829;48.990;8.346;2023-04-01T00:57:50;10.90;99.90
5055;DHT22;13829;48.990;8.346;2023-04-01T01:00:24;10.90;99.90
5055;DHT22;13829;48.990;8.346;2023-04-01T01:02:52;11.00;99.90
5055;DHT22;13829;48.990;8.346;2023-04-01T01:05:23;11.00;99.90
5055;DHT22;13829;48.990;8.346;2023-04-01T01:08:12;11.00;99.90
5055;DHT22;13829;48.990;8.346;2023-04-01T01:10:48;10.90;99.90
5055;DHT22;13829;48.990;8.346;2023-04-01T01:13:19;10.90;99.90
5055;DHT22;13829;48.990;8.346;2023-04-01T01:15:58;10.90;99.90
5055;DHT22;13829;48.990;8.346;2023-04-01T01:18:38;10.90;99.90
5055;DHT22;13829;48.990;8.346;2023-04-01T01:21:32;10.90;99.90
5055;DHT22;13829;48.990;8.346;2023-04-01T01:24:30;11.00;99.90
5055;DHT22;13829;48.990;8.346;2023-04-01T01:27:11;11.00;99.90
5055;DHT22;13829;48.990;8.346;2023-04-01T01:30:12;11.00;99.90
5055;DHT22;13829;48.990;8.346;2023-04-01T01:33:13;11.00;99.90
5055;DHT22;13829;48.990;8.346;2023-04-01T01:36:04;10.90;99.90
5055;DHT22;13829;48.990;8.346;2023-04-01T01:38:37;10.90;99.90
5055;DHT22;13829;48.990;8.346;2023-04-01T01:41:08;10.90;99.90
5055;DHT22;13829;48.990;8.346;2023-04-01T01:43:41;10.90;99.90
5055;DHT22;13829;48.990;8.346;2023-04-01T01:46:12;10.80;99.90
5055;DHT22;13829;48.990;8.346;2023-04-01T01:48:44;10.80;99.90
5055;DHT22;13829;48.990;8.346;2023-04-01T01:51:15;10.80;99.90
5055;DHT22;13829;48.990;8.346;2023-04-01T01:53:43;10.80;99.90
5055;DHT22;13829;48.990;8.346;2023-04-01T01:56:11;10.80;99.90
5055;DHT22;13829;48.990;8.346;2023-04-01T01:58:42;10.80;99.90
5055;DHT22;13829;48.990;8.346;2023-04-01T02:01:13;10.80;99.90
5055;DHT22;13829;48.990;8.346;2023-04-01T02:03:43;10.90;99.90
5055;DHT22;13829;48.990;8.346;2023-04-01T02:06:17;10.90;99.90
5055;DHT22;13829;48.990;8.346;2023-04-01T02:08:50;10.80;99.90
5055;DHT22;13829;48.990;8.346;2023-04-01T02:11:26;10.80;99.90
5055;DHT22;13829;48.990;8.346;2023-04-01T02:14:03;10.80;99.90
5055;DHT22;13829;48.990;8.346;2023-04-01T02:16:39;10.70;99.90
5055;DHT22;13829;48.990;8.346;2023-04-01T02:19:12;10.60;99.90
5055;DHT22;13829;48.990;8.346;2023-04-01T02:21:42;10.60;99.90
5055;DHT22;13829;48.990;8.346;2023-04-01T02:24:13;10.60;99.90
5055;DHT22;13829;48.990;8.346;2023-04-01T02:26:41;10.60;99.90
5055;DHT22;13829;48.990;8.346;2023-04-01T02:29:11;10.60;99.90
5055;DHT22;13829;48.990;8.346;2023-04-01T02:31:41;10.60;99.90
5055;DHT22;13829;48.990;8.346;2023-04-01T02:34:14;10.60;99.90
5055;DHT22;13829;48.990;8.346;2023-04-01T02:36:47;10.50;99.90
5055;DHT22;13829;48.990;8.346;2023-04-01T02:39:16;10.60;99.90
5055;DHT22;13829;48.990;8.346;2023-04-01T02:41:45;10.50;99.90
5055;DHT22;13829;48.990;8.346;2023-04-01T02:44:14;10.50;99.90
5055;DHT22;13829;48.990;8.346;2023-04-01T02:46:41;10.40;99.90
5055;DHT22;13829;48.990;8.346;2023-04-01T02:49:09;10.40;99.90
5055;DHT22;13829;48.990;8.346;2023-04-01T02:51:36;10.40;99.90
5055;DHT22;13829;48.990;8.346;2023-04-01T02:54:04;10.30;99.90
5055;DHT22;13829;48.990;8.346;2023-04-01T02:56:31;10.40;99.90
5055;DHT22;13829;48.990;8.346;2023-04-01T02:59:00;10.40;99.90
5055;DHT22;13829;48.990;8.346;2023-04-01T03:01:27;10.50;99.90
5055;DHT22;13829;48.990;8.346;2023-04-01T03:03:55;10.50;99.90
5055;DHT22;13829;48.990;8.346;2023-04-01T03:06:22;10.50;99.90
5055;DHT22;13829;48.990;8.346;2023-04-01T03:08:52;10.50;99.90
5055;DHT22;13829;48.990;8.346;2023-04-01T03:11:22;10.50;99.90
5055;DHT22;13829;48.990;8.346;2023-04-01T03:13:49;10.50;99.90
5055;DHT22;13829;48.990;8.346;2023-04-01T03:16:16;10.50;99.90
5055;DHT22;13829;48.990;8.346;2023-04-01T03:18:43;10.50;99.90
5055;DHT22;13829;48.990;8.346;2023-04-01T03:21:16;10.50;99.90
5055;DHT22;13829;48.990;8.346;2023-04-01T03:23:45;10.50;99.90
5055;DHT22;13829;48.990;8.346;2023-04-01T03:26:12;10.50;99.90
5055;DHT22;13829;48.990;8.346;2023-04-01T03:28:42;10.50;99.90
5055;DHT22;13829;48.990;8.346;2023-04-01T03:31:15;10.50;99.90
5055;DHT22;13829;48.990;8.346;2023-04-01T03:33:44;10.60;99.90
5055;DHT22;13829;48.990;8.346;2023-04-01T03:36:15;10.60;99.90
5055;DHT22;13829;48.990;8.346;2023-04-01T03:38:43;10.60;99.90
5055;DHT22;13829;48.990;8.346;2023-04-01T03:41:14;10.60;99.90
5055;DHT22;13829;48.990;8.346;2023-04-01T03:43:45;10.60;99.90
5055;DHT22;13829;48.990;8.346;2023-04-01T03:46:17;10.70;99.90
5055;DHT22;13829;48.990;8.346;2023-04-01T03:48:45;10.70;99.90
5055;DHT22;13829;48.990;8.346;2023-04-01T03:51:12;10.70;99.90
5055;DHT22;13829;48.990;8.346;2023-04-01T03:53:39;10.70;99.90
5055;DHT22;13829;48.990;8.346;2023-04-01T03:56:07;10.70;99.90
5055;DHT22;13829;48.990;8.346;2023-04-01T03:58:35;10.60;99.90
5055;DHT22;13829;48.990;8.346;2023-04-01T04:01:13;10.70;99.90
5055;DHT22;13829;48.990;8.346;2023-04-01T04:03:46;10.60;99.90
5055;DHT22;13829;48.990;8.346;2023-04-01T04:06:16;10.60;99.90
5055;DHT22;13829;48.990;8.346;2023-04-01T04:08:46;10.60;99.90
5055;DHT22;13829;48.990;8.346;2023-04-01T04:11:13;10.60;99.90
5055;DHT22;13829;48.990;8.346;2023-04-01T04:13:41;10.60;99.90
5055;DHT22;13829;48.990;8.346;2023-04-01T04:16:11;10.70;99.90
5055;DHT22;13829;48.990;8.346;2023-04-01T04:18:38;10.70;99.90
5055;DHT22;13829;48.990;8.346;2023-04-01T04:21:05;10.60;99.90
5055;DHT22;13829;48.990;8.346;2023-04-01T04:23:33;10.70;99.90
5055;DHT22;13829;48.990;8.346;2023-04-01T04:26:02;10.70;99.90
5055;DHT22;13829;48.990;8.346;2023-04-01T04:28:31;10.70;99.90
5055;DHT22;13829;48.990;8.346;2023-04-01T04:30:59;10.70;99.90
5055;DHT22;13829;48.990;8.346;2023-04-01T04:33:28;10.70;99.90
5055;DHT22;13829;48.990;8.346;2023-04-01T04:35:56;10.70;99.90
5055;DHT22;13829;48.990;8.346;2023-04-01T04:38:24;10.70;99.90
5055;DHT22;13829;48.990;8.346;2023-04-01T04:40:52;10.70;99.90
5055;DHT22;13829;48.990;8.346;2023-04-01T04:43:21;10.80;99.90
5055;DHT22;13829;48.990;8.346;2023-04-01T04:45:48;10.80;99.90
5055;DHT22;13829;48.990;8.346;2023-04-01T04:48:16;10.80;99.90
5055;DHT22;13829;48.990;8.346;2023-04-01T04:50:50;10.80;99.90
5055;DHT22;13829;48.990;8.346;2023-04-01T04:53:20;10.90;99.90
5055;DHT22;13829;48.990;8.346;2023-04-01T04:55:48;10.70;99.90
5055;DHT22;13829;48.990;8.346;2023-04-01T04:58:18;10.80;99.90
5055;DHT22;13829;48.990;8.346;2023-04-01T05:00:46;10.80;99.90
5055;DHT22;13829;48.990;8.346;2023-04-01T05:03:14;10.70;99.90
5055;DHT22;13829;48.990;8.346;2023-04-01T05:05:53;10.80;99.90
5055;DHT22;13829;48.990;8.346;2023-04-01T05:08:20;10.80;99.90
5055;DHT22;13829;48.990;8.346;2023-04-01T05:10:49;10.80;99.90
5055;DHT22;13829;48.990;8.346;2023-04-01T05:13:16;10.90;99.90
5055;DHT22;13829;48.990;8.346;2023-04-01T05:15:45;10.80;99.90
5055;DHT22;13829;48.990;8.346;2023-04-01T05:18:18;10.80;99.90
5055;DHT22;13829;48.990;8.346;2023-04-01T05:20:50;10.80;99.90
5055;DHT22;13829;48.990;8.346;2023-04-01T05:23:20;10.80;99.90
5055;DHT22;13829;48.990;8.346;2023-04-01T05:26:03;10.70;99.90
5055;DHT22;13829;48.990;8.346;2023-04-01T05:28:35;10.80;99.90
5055;DHT22;13829;48.990;8.346;2023-04-01T05:31:06;10.70;99.90
5055;DHT22;13829;48.990;8.346;2023-04-01T05:33:33;10.80;99.90
5055;DHT22;13829;48.990;8.346;2023-04-01T05:36:08;10.70;99.90
5055;DHT22;13829;48.990;8.346;2023-04-01T05:38:38;10.70;99.90
5055;DHT22;13829;48.990;8.346;2023-04-01T05:41:05;10.60;99.90
5055;DHT22;13829;48.990;8.346;2023-04-01T05:43:32;10.50;99.90
5055;DHT22;13829;48.990;8.346;2023-04-01T05:46:01;10.40;99.90
5055;DHT22;13829;48.990;8.346;2023-04-01T05:48:31;10.40;99.90
5055;DHT22;13829;48.990;8.346;2023-04-01T05:51:06;10.40;99.90
5055;DHT22;13829;48.990;8.346;2023-04-01T05:53:38;10.40;99.90
5055;DHT22;13829;48.990;8.346;2023-04-01T05:56:07;10.30;99.90
5055;DHT22;13829;48.990;8.346;2023-04-01T05:58:36;10.30;99.90
5055;DHT22;13829;48.990;8.346;2023-04-01T06:01:08;10.40;99.90
5055;DHT22;13829;48.990;8.346;2023-04-01T06:03:36;10.40;99.90
5055;DHT22;13829;48.990;8.346;2023-04-01T06:06:10;10.40;99.90
5055;DHT22;13829;48.990;8.346;2023-04-01T06:08:48;10.30;99.90
5055;DHT22;13829;48.990;8.346;2023-04-01T06:11:23;10.30;99.90
5055;DHT22;13829;48.990;8.346;2023-04-01T06:14:18;10.30;99.90
5055;DHT22;13829;48.990;8.346;2023-04-01T06:17:07;10.20;99.90
5055;DHT22;13829;48.990;8.346;2023-04-01T06:19:51;10.20;99.90
5055;DHT22;13829;48.990;8.346;2023-04-01T06:22:43;10.20;99.90
5055;DHT22;13829;48.990;8.346;2023-04-01T06:25:42;10.20;99.90
5055;DHT22;13829;48.990;8.346;2023-04-01T06:28:52;10.10;99.90
5055;DHT22;13829;48.990;8.346;2023-04-01T06:31:44;10.10;99.90
5055;DHT22;13829;48.990;8.346;2023-04-01T06:34:50;10.20;99.90
5055;DHT22;13829;48.990;8.346;2023-04-01T06:37:58;10.30;99.90
5055;DHT22;13829;48.990;8.346;2023-04-01T06:43:51;10.40;99.90
5055;DHT22;13829;48.990;8.346;2023-04-01T06:46:31;10.40;99.90
5055;DHT22;13829;48.990;8.346;2023-04-01T06:49:39;10.50;99.90
5055;DHT22;13829;48.990;8.346;2023-04-01T06:52:22;10.40;99.90
5055;DHT22;13829;48.990;8.346;2023-04-01T06:55:02;10.50;99.90
5055;DHT22;13829;48.990;8.346;2023-04-01T06:57:48;10.50;99.90
5055;DHT22;13829;48.990;8.346;2023-04-01T07:00:26;10.60;99.90
5055;DHT22;13829;48.990;8.346;2023-04-01T07:03:10;10.70;99.90
5055;DHT22;13829;48.990;8.346;2023-04-01T07:05:48;10.70;99.90
5055;DHT22;13829;48.990;8.346;2023-04-01T07:08:19;10.70;99.90
5055;DHT22;13829;48.990;8.346;2023-04-01T07:10:58;10.70;99.90
5055;DHT22;13829;48.990;8.346;2023-04-01T07:13:32;10.80;99.90
5055;DHT22;13829;48.990;8.346;2023-04-01T07:16:11;10.70;99.90
5055;DHT22;13829;48.990;8.346;2023-04-01T07:18:47;10.70;99.90
5055;DHT22;13829;48.990;8.346;2023-04-01T07:21:25;10.80;99.90
5055;DHT22;13829;48.990;8.346;2023-04-01T07:24:06;10.80;99.90
5055;DHT22;13829;48.990;8.346;2023-04-01T07:26:39;10.70;99.90
5055;DHT22;13829;48.990;8.346;2023-04-01T07:29:12;10.80;99.90
5055;DHT22;13829;48.990;8.346;2023-04-01T07:31:49;10.80;99.90
5055;DHT22;13829;48.990;8.346;2023-04-01T07:34:27;10.70;99.90
5055;DHT22;13829;48.990;8.346;2023-04-01T07:37:03;10.60;99.90
5055;DHT22;13829;48.990;8.346;2023-04-01T07:39:43;10.60;99.90
5055;DHT22;13829;48.990;8.346;2023-04-01T07:42:28;10.60;99.90
5055;DHT22;13829;48.990;8.346;2023-04-01T07:45:13;10.60;99.90
5055;DHT22;13829;48.990;8.346;2023-04-01T07:47:55;10.50;99.90
5055;DHT22;13829;48.990;8.346;2023-04-01T07:50:37;10.50;99.90
5055;DHT22;13829;48.990;8.346;2023-04-01T07:53:17;10.50;99.90
5055;DHT22;13829;48.990;8.346;2023-04-01T07:56:00;10.40;99.90
5055;DHT22;13829;48.990;8.346;2023-04-01T07:58:41;10.50;99.90
5055;DHT22;13829;48.990;8.346;2023-04-01T08:01:23;10.50;99.90
5055;DHT22;13829;48.990;8.346;2023-04-01T08:04:13;10.60;99.90
5055;DHT22;13829;48.990;8.346;2023-04-01T08:06:52;10.70;99.90
5055;DHT22;13829;48.990;8.346;2023-04-01T08:09:33;10.70;99.90
5055;DHT22;13829;48.990;8.346;2023-04-01T08:12:17;10.90;99.90
5055;DHT22;13829;48.990;8.346;2023-04-01T08:15:07;11.00;99.90
5055;DHT22;13829;48.990;8.346;2023-04-01T08:17:48;11.10;99.90
5055;DHT22;13829;48.990;8.346;2023-04-01T08:20:37;11.30;99.90
5055;DHT22;13829;48.990;8.346;2023-04-01T08:23:15;11.10;99.90
5055;DHT22;13829;48.990;8.346;2023-04-01T08:25:56;11.30;99.90
5055;DHT22;13829;48.990;8.346;2023-04-01T08:28:32;11.30;99.90
5055;DHT22;13829;48.990;8.346;2023-04-01T08:31:12;11.40;99.90
5055;DHT22;13829;48.990;8.346;2023-04-01T08:33:46;11.40;99.90
5055;DHT22;13829;48.990;8.346;2023-04-01T08:36:21;11.40;99.90
5055;DHT22;13829;48.990;8.346;2023-04-01T08:38:55;11.50;99.90
5055;DHT22;13829;48.990;8.346;2023-04-01T08:41:58;11.50;99.90
5055;DHT22;13829;48.990;8.346;2023-04-01T08:45:18;11.60;99.90
5055;DHT22;13829;48.990;8.346;2023-04-01T08:52:01;11.70;99.90
5055;DHT22;13829;48.990;8.346;2023-04-01T08:55:04;11.60;99.90
5055;DHT22;13829;48.990;8.346;2023-04-01T08:58:01;11.60;99.90
5055;DHT22;13829;48.990;8.346;2023-04-01T09:00:53;11.70;99.90
5055;DHT22;13829;48.990;8.346;2023-04-01T09:03:36;11.60;99.90
5055;DHT22;13829;48.990;8.346;2023-04-01T09:06:24;11.70;99.90
5055;DHT22;13829;48.990;8.346;2023-04-01T09:12:51;11.70;99.90
5055;DHT22;13829;48.990;8.346;2023-04-01T09:15:47;11.50;99.90
5055;DHT22;13829;48.990;8.346;2023-04-01T09:19:09;11.60;99.90
5055;DHT22;13829;48.990;8.346;2023-04-01T09:22:21;11.70;99.90
5055;DHT22;13829;48.990;8.346;2023-04-01T09:27:56;11.60;99.90
5055;DHT22;13829;48.990;8.346;2023-04-01T09:31:06;11.60;99.90
5055;DHT22;13829;48.990;8.346;2023-04-01T09:37:18;11.60;99.90
5055;DHT22;13829;48.990;8.346;2023-04-01T09:40:09;11.70;99.90
5055;DHT22;13829;48.990;8.346;2023-04-01T09:42:45;11.60;99.90
5055;DHT22;13829;48.990;8.346;2023-04-01T09:45:41;11.60;99.90
5055;DHT22;13829;48.990;8.346;2023-04-01T09:48:27;11.60;99.90
5055;DHT22;13829;48.990;8.346;2023-04-01T09:51:26;11.60;99.90
5055;DHT22;13829;48.990;8.346;2023-04-01T09:54:15;11.50;99.90
5055;DHT22;13829;48.990;8.346;2023-04-01T10:00:32;11.50;99.90
5055;DHT22;13829;48.990;8.346;2023-04-01T10:03:58;11.50;99.90
5055;DHT22;13829;48.990;8.346;2023-04-01T10:20:31;11.50;99.90
5055;DHT22;13829;48.990;8.346;2023-04-01T10:27:25;11.50;99.90
5055;DHT22;13829;48.990;8.346;2023-04-01T10:34:09;11.40;99.90
5055;DHT22;13829;48.990;8.346;2023-04-01T10:36:55;11.50;99.90
5055;DHT22;13829;48.990;8.346;2023-04-01T10:39:45;11.50;99.90
5055;DHT22;13829;48.990;8.346;2023-04-01T10:46:41;11.60;99.90
5055;DHT22;13829;48.990;8.346;2023-04-01T10:50:08;11.60;99.90
5055;DHT22;13829;48.990;8.346;2023-04-01T10:53:13;11.70;99.90
5055;DHT22;13829;48.990;8.346;2023-04-01T10:56:29;11.70;99.90
5055;DHT22;13829;48.990;8.346;2023-04-01T10:59:36;11.70;99.90
5055;DHT22;13829;48.990;8.346;2023-04-01T11:13:26;11.70;99.90
5055;DHT22;13829;48.990;8.346;2023-04-01T11:16:47;11.80;99.90
5055;DHT22;13829;48.990;8.346;2023-04-01T11:19:52;11.80;99.90
5055;DHT22;13829;48.990;8.346;2023-04-01T11:23:03;11.70;99.90
5055;DHT22;13829;48.990;8.346;2023-04-01T11:25:54;11.60;99.90
5055;DHT22;13829;48.990;8.346;2023-04-01T11:29:00;11.70;99.90
5055;DHT22;13829;48.990;8.346;2023-04-01T11:31:46;11.70;99.90
5055;DHT22;13829;48.990;8.346;2023-04-01T11:34:37;11.60;99.90
5055;DHT22;13829;48.990;8.346;2023-04-01T11:37:34;11.60;99.90
5055;DHT22;13829;48.990;8.346;2023-04-01T11:40:17;11.70;99.90
5055;DHT22;13829;48.990;8.346;2023-04-01T11:42:58;11.70;99.90
5055;DHT22;13829;48.990;8.346;2023-04-01T11:45:35;11.80;99.90
5055;DHT22;13829;48.990;8.346;2023-04-01T11:48:23;11.90;99.90
5055;DHT22;13829;48.990;8.346;2023-04-01T11:51:18;11.90;99.90
5055;DHT22;13829;48.990;8.346;2023-04-01T11:54:07;12.00;99.90
5055;DHT22;13829;48.990;8.346;2023-04-01T11:56:59;12.00;99.90
5055;DHT22;13829;48.990;8.346;2023-04-01T11:59:53;12.00;99.90
5055;DHT22;13829;48.990;8.346;2023-04-01T12:02:41;11.90;99.90
5055;DHT22;13829;48.990;8.346;2023-04-01T12:05:43;11.90;99.90
5055;DHT22;13829;48.990;8.346;2023-04-01T12:08:29;11.90;99.90
5055;DHT22;13829;48.990;8.346;2023-04-01T12:11:16;11.80;99.90
5055;DHT22;13829;48.990;8.346;2023-04-01T12:13:52;11.70;99.90
5055;DHT22;13829;48.990;8.346;2023-04-01T12:16:41;11.60;99.90
5055;DHT22;13829;48.990;8.346;2023-04-01T12:19:37;11.40;99.90
5055;DHT22;13829;48.990;8.346;2023-04-01T12:22:23;11.20;99.90
5055;DHT22;13829;48.990;8.346;2023-04-01T12:25:24;11.20;99.90
5055;DHT22;13829;48.990;8.346;2023-04-01T12:28:08;11.30;99.90
5055;DHT22;13829;48.990;8.346;2023-04-01T12:31:01;11.30;99.90
5055;DHT22;13829;48.990;8.346;2023-04-01T12:33:54;11.30;99.90
5055;DHT22;13829;48.990;8.346;2023-04-01T12:36:52;11.40;99.90
5055;DHT22;13829;48.990;8.346;2023-04-01T12:39:42;11.40;99.90
5055;DHT22;13829;48.990;8.346;2023-04-01T12:45:31;11.50;99.90
5055;DHT22;13829;48.990;8.346;2023-04-01T12:48:31;11.50;99.90
5055;DHT22;13829;48.990;8.346;2023-04-01T12:52:06;11.40;99.90
5055;DHT22;13829;48.990;8.346;2023-04-01T12:55:15;11.30;99.90
5055;DHT22;13829;48.990;8.346;2023-04-01T13:01:35;11.50;99.90
5055;DHT22;13829;48.990;8.346;2023-04-01T13:08:00;11.60;99.90
5055;DHT22;13829;48.990;8.346;2023-04-01T13:11:08;11.70;99.90
5055;DHT22;13829;48.990;8.346;2023-04-01T13:17:12;11.80;99.90
5055;DHT22;13829;48.990;8.346;2023-04-01T13:19:50;11.80;99.90
5055;DHT22;13829;48.990;8.346;2023-04-01T13:22:31;12.00;99.90
5055;DHT22;13829;48.990;8.346;2023-04-01T13:25:19;12.10;99.90
5055;DHT22;13829;48.990;8.346;2023-04-01T13:28:00;12.10;99.90
5055;DHT22;13829;48.990;8.346;2023-04-01T13:30:42;12.10;99.90
5055;DHT22;13829;48.990;8.346;2023-04-01T13:33:24;12.10;99.90
5055;DHT22;13829;48.990;8.346;2023-04-01T13:36:12;12.00;99.90
5055;DHT22;13829;48.990;8.346;2023-04-01T13:39:10;11.90;99.90
5055;DHT22;13829;48.990;8.346;2023-04-01T13:41:55;11.70;99.90
5055;DHT22;13829;48.990;8.346;2023-04-01T13:44:43;11.70;99.90
5055;DHT22;13829;48.990;8.346;2023-04-01T13:51:27;11.50;99.90
5055;DHT22;13829;48.990;8.346;2023-04-01T13:54:36;11.60;99.90
5055;DHT22;13829;48.990;8.346;2023-04-01T13:57:51;11.60;99.90
5055;DHT22;13829;48.990;8.346;2023-04-01T14:00:42;11.70;99.90
5055;DHT22;13829;48.990;8.346;2023-04-01T14:03:32;11.80;99.90
5055;DHT22;13829;48.990;8.346;2023-04-01T14:06:23;11.80;99.90
5055;DHT22;13829;48.990;8.346;2023-04-01T14:09:11;11.70;99.90
5055;DHT22;13829;48.990;8.346;2023-04-01T14:11:56;11.80;99.90
5055;DHT22;13829;48.990;8.346;2023-04-01T14:14:43;11.70;99.90
5055;DHT22;13829;48.990;8.346;2023-04-01T14:17:31;11.60;99.90
5055;DHT22;13829;48.990;8.346;2023-04-01T14:20:28;11.60;99.90
5055;DHT22;13829;48.990;8.346;2023-04-01T14:29:52;11.40;99.90
5055;DHT22;13829;48.990;8.346;2023-04-01T14:32:38;11.40;99.90
5055;DHT22;13829;48.990;8.346;2023-04-01T14:35:35;11.50;99.90
5055;DHT22;13829;48.990;8.346;2023-04-01T14:38:27;11.60;99.90
5055;DHT22;13829;48.990;8.346;2023-04-01T14:41:10;11.50;99.90
5055;DHT22;13829;48.990;8.346;2023-04-01T14:44:04;11.60;99.90
5055;DHT22;13829;48.990;8.346;2023-04-01T14:47:15;11.50;99.90
5055;DHT22;13829;48.990;8.346;2023-04-01T14:50:06;11.50;99.90
5055;DHT22;13829;48.990;8.346;2023-04-01T14:52:42;11.50;99.90
5055;DHT22;13829;48.990;8.346;2023-04-01T14:55:31;11.50;99.90
5055;DHT22;13829;48.990;8.346;2023-04-01T14:58:10;11.60;99.90
5055;DHT22;13829;48.990;8.346;2023-04-01T15:00:52;11.60;99.90
5055;DHT22;13829;48.990;8.346;2023-04-01T15:03:33;11.60;99.90
5055;DHT22;13829;48.990;8.346;2023-04-01T15:06:35;11.70;99.90
5055;DHT22;13829;48.990;8.346;2023-04-01T15:09:21;11.70;99.90
5055;DHT22;13829;48.990;8.346;2023-04-01T15:12:07;11.60;99.90
5055;DHT22;13829;48.990;8.346;2023-04-01T15:15:05;11.70;99.90
5055;DHT22;13829;48.990;8.346;2023-04-01T15:17:55;11.70;99.90
5055;DHT22;13829;48.990;8.346;2023-04-01T15:20:45;11.70;99.90
5055;DHT22;13829;48.990;8.346;2023-04-01T15:23:28;11.80;99.90
5055;DHT22;13829;48.990;8.346;2023-04-01T15:26:19;11.80;99.90
5055;DHT22;13829;48.990;8.346;2023-04-01T15:29:06;12.00;99.90
5055;DHT22;13829;48.990;8.346;2023-04-01T15:31:53;12.20;99.90
5055;DHT22;13829;48.990;8.346;2023-04-01T15:34:32;12.20;99.90
5055;DHT22;13829;48.990;8.346;2023-04-01T15:37:12;12.20;99.90
5055;DHT22;13829;48.990;8.346;2023-04-01T15:39:54;12.10;99.90
5055;DHT22;13829;48.990;8.346;2023-04-01T15:42:40;12.00;99.90
5055;DHT22;13829;48.990;8.346;2023-04-01T15:45:29;11.90;99.90
5055;DHT22;13829;48.990;8.346;2023-04-01T15:48:24;11.80;99.90
5055;DHT22;13829;48.990;8.346;2023-04-01T15:51:12;11.80;99.90
5055;DHT22;13829;48.990;8.346;2023-04-01T15:54:12;11.70;99.90
5055;DHT22;13829;48.990;8.346;2023-04-01T15:57:08;11.60;99.90
5055;DHT22;13829;48.990;8.346;2023-04-01T16:00:00;11.70;99.90
5055;DHT22;13829;48.990;8.346;2023-04-01T16:02:44;11.60;99.90
5055;DHT22;13829;48.990;8.346;2023-04-01T16:05:40;11.60;99.90
5055;DHT22;13829;48.990;8.346;2023-04-01T16:08:36;11.60;99.90
5055;DHT22;13829;48.990;8.346;2023-04-01T16:11:23;11.60;99.90
5055;DHT22;13829;48.990;8.346;2023-04-01T16:14:06;11.60;99.90
5055;DHT22;13829;48.990;8.346;2023-04-01T16:17:00;11.70;99.90
5055;DHT22;13829;48.990;8.346;2023-04-01T16:19:55;11.70;99.90
5055;DHT22;13829;48.990;8.346;2023-04-01T16:22:31;11.70;99.90
5055;DHT22;13829;48.990;8.346;2023-04-01T16:25:19;11.60;99.90
5055;DHT22;13829;48.990;8.346;2023-04-01T16:27:58;11.60;99.90
5055;DHT22;13829;48.990;8.346;2023-04-01T16:30:48;11.60;99.90
5055;DHT22;13829;48.990;8.346;2023-04-01T16:33:35;11.60;99.90
5055;DHT22;13829;48.990;8.346;2023-04-01T16:36:13;11.50;99.90
5055;DHT22;13829;48.990;8.346;2023-04-01T16:39:06;11.50;99.90
5055;DHT22;13829;48.990;8.346;2023-04-01T16:41:47;11.50;99.90
5055;DHT22;13829;48.990;8.346;2023-04-01T16:44:22;11.50;99.90
5055;DHT22;13829;48.990;8.346;2023-04-01T16:46:52;11.40;99.90
5055;DHT22;13829;48.990;8.346;2023-04-01T16:49:40;11.40;99.90
5055;DHT22;13829;48.990;8.346;2023-04-01T16:52:34;11.40;99.90
5055;DHT22;13829;48.990;8.346;2023-04-01T16:55:16;11.30;99.90
5055;DHT22;13829;48.990;8.346;2023-04-01T16:57:50;11.30;99.90
5055;DHT22;13829;48.990;8.346;2023-04-01T17:00:27;11.30;99.90
5055;DHT22;13829;48.990;8.346;2023-04-01T17:03:08;11.20;99.90
5055;DHT22;13829;48.990;8.346;2023-04-01T17:05:52;11.20;99.90
5055;DHT22;13829;48.990;8.346;2023-04-01T17:08:36;11.10;99.90
5055;DHT22;13829;48.990;8.346;2023-04-01T17:11:26;11.10;99.90
5055;DHT22;13829;48.990;8.346;2023-04-01T17:14:06;11.10;99.90
5055;DHT22;13829;48.990;8.346;2023-04-01T17:16:59;11.10;99.90
5055;DHT22;13829;48.990;8.346;2023-04-01T17:19:49;11.10;99.90
5055;DHT22;13829;48.990;8.346;2023-04-01T17:22:33;11.10;99.90
5055;DHT22;13829;48.990;8.346;2023-04-01T17:25:27;11.10;99.90
5055;DHT22;13829;48.990;8.346;2023-04-01T17:28:08;11.10;99.90
5055;DHT22;13829;48.990;8.346;2023-04-01T17:30:53;11.20;99.90
5055;DHT22;13829;48.990;8.346;2023-04-01T17:33:55;11.20;99.90
5055;DHT22;13829;48.990;8.346;2023-04-01T17:37:04;11.20;99.90
5055;DHT22;13829;48.990;8.346;2023-04-01T17:39:54;11.20;99.90
5055;DHT22;13829;48.990;8.346;2023-04-01T17:42:36;11.10;99.90
5055;DHT22;13829;48.990;8.346;2023-04-01T17:45:11;11.20;99.90
5055;DHT22;13829;48.990;8.346;2023-04-01T17:47:57;11.10;99.90
5055;DHT22;13829;48.990;8.346;2023-04-01T17:50:44;11.00;99.90
5055;DHT22;13829;48.990;8.346;2023-04-01T17:53:31;11.00;99.90
5055;DHT22;13829;48.990;8.346;2023-04-01T17:56:14;11.10;99.90
5055;DHT22;13829;48.990;8.346;2023-04-01T17:58:56;11.00;99.90
5055;DHT22;13829;48.990;8.346;2023-04-01T18:01:40;11.00;99.90
5055;DHT22;13829;48.990;8.346;2023-04-01T18:04:30;10.90;99.90
5055;DHT22;13829;48.990;8.346;2023-04-01T18:10:37;10.70;99.90
5055;DHT22;13829;48.990;8.346;2023-04-01T18:13:45;10.70;99.90
5055;DHT22;13829;48.990;8.346;2023-04-01T18:16:33;10.70;99.90
5055;DHT22;13829;48.990;8.346;2023-04-01T18:19:16;10.60;99.90
5055;DHT22;13829;48.990;8.346;2023-04-01T18:22:08;10.60;99.90
5055;DHT22;13829;48.990;8.346;2023-04-01T18:24:45;10.60;99.90
5055;DHT22;13829;48.990;8.346;2023-04-01T18:27:30;10.50;99.90
5055;DHT22;13829;48.990;8.346;2023-04-01T18:30:08;10.50;99.90
5055;DHT22;13829;48.990;8.346;2023-04-01T18:32:46;10.40;99.90
5055;DHT22;13829;48.990;8.346;2023-04-01T18:35:29;10.40;99.90
5055;DHT22;13829;48.990;8.346;2023-04-01T18:38:12;10.40;99.90
5055;DHT22;13829;48.990;8.346;2023-04-01T18:40:45;10.30;99.90
5055;DHT22;13829;48.990;8.346;2023-04-01T18:43:30;10.30;99.90
5055;DHT22;13829;48.990;8.346;2023-04-01T18:46:10;10.30;99.90
5055;DHT22;13829;48.990;8.346;2023-04-01T18:48:51;10.30;99.90